Aurora, New York
Current Conditions -  °F | °C
As of 7:53 AM on Thursday 30 Oct 2014 (Local Time) from KPEO Reporting Station
Overcast Overcast  
Wind Chill: 39°   Ceiling: 2600
Heat Index: 44°   Visibility: 10mi
Dew Point: 35°   Wind: 9mph
Humidity: 71%   Direction: 260°W
Pressure: 30.02"   Gusts: NA
Location:  42.75°N, 76.7°W
Report Text: KPEO 301153Z AUTO 26008KT 10SM OVC026 07/02 A3002 RMK AO2 SLP171 70002 T00670017 10078 20050 53015
Loading
Personal Weather Stations






























Interactive Weather Map
Tropical Storm Tracking
New forecast layout! Learn more

10-Day Weather Forecast

Advertisements
Track Severe Weather on mobile